Time;durP1;ratioP1;P1;durP2;ratioP2;P2;SDS_P1;SDS_P2;PMS_P1;PMS_P2;Temp;Humidity;BMP_temperature;BMP_pressure;BME280_temperature;BME280_humidity;BME280_pressure;Samples;Min_cycle;Max_cycle;Signal;HPM_P1;HPM_P2
2022/01/28 00:00:49;;;;;;;16.95;10.85;;;1.90;99.90;;;;;;6276791;22;20174;-85
2022/01/28 00:03:43;;;;;;;16.92;9.73;;;1.90;99.90;;;;;;6274914;22;20031;-85
2022/01/28 00:06:33;;;;;;;17.65;10.05;;;1.80;99.90;;;;;;6251558;22;20028;-84
2022/01/28 00:09:20;;;;;;;18.88;10.65;;;1.80;99.90;;;;;;6274909;22;20035;-85
2022/01/28 00:12:08;;;;;;;17.25;10.60;;;1.70;99.90;;;;;;6275279;22;20144;-86
2022/01/28 00:15:06;;;;;;;19.17;11.00;;;1.70;99.90;;;;;;6252852;22;20374;-85
2022/01/28 00:39:45;;;;;;;19.02;10.95;;;2.10;99.90;;;;;;6276260;22;20028;-85
2022/01/28 00:42:35;;;;;;;19.67;10.52;;;2.10;99.90;;;;;;6252508;22;20477;-85
2022/01/28 00:45:23;;;;;;;18.33;10.70;;;2.10;99.90;;;;;;6275595;22;20027;-85
2022/01/28 00:48:10;;;;;;;16.67;10.98;;;2.10;99.90;;;;;;6273773;22;20031;-85
2022/01/28 00:50:59;;;;;;;18.42;10.90;;;2.10;99.90;;;;;;6274526;22;20031;-84
2022/01/28 00:53:46;;;;;;;21.05;11.30;;;2.20;99.90;;;;;;6273465;22;20036;-85
2022/01/28 00:56:34;;;;;;;17.08;11.02;;;2.20;99.90;;;;;;6274171;22;20031;-84
2022/01/28 00:59:21;;;;;;;16.70;11.27;;;2.20;99.90;;;;;;6252295;22;20330;-84
2022/01/28 01:02:08;;;;;;;16.80;11.10;;;2.20;99.90;;;;;;6274275;22;20311;-84
2022/01/28 01:04:58;;;;;;;17.73;10.68;;;2.20;99.90;;;;;;6274140;22;20023;-84
2022/01/28 01:07:47;;;;;;;20.10;11.10;;;2.20;99.90;;;;;;6274440;22;20055;-84
2022/01/28 01:10:36;;;;;;;19.35;11.68;;;2.30;99.90;;;;;;6273713;22;20036;-86
2022/01/28 01:13:23;;;;;;;21.23;11.45;;;2.30;99.90;;;;;;6272676;22;20031;-85
2022/01/28 01:16:23;;;;;;;16.67;10.98;;;2.30;99.90;;;;;;6252932;22;20023;-84
2022/01/28 01:21:59;;;;;;;17.73;10.90;;;2.30;99.90;;;;;;6273870;22;20023;-85
2022/01/28 01:24:52;;;;;;;14.10;10.13;;;2.40;99.90;;;;;;6252237;22;20345;-86
2022/01/28 01:27:40;;;;;;;18.25;10.25;;;2.40;99.90;;;;;;6276025;22;20054;-85
2022/01/28 01:30:29;;;;;;;23.13;11.02;;;2.40;99.90;;;;;;6275305;22;20326;-86
2022/01/28 01:33:21;;;;;;;18.10;11.40;;;2.40;99.90;;;;;;6276978;22;20055;-86
2022/01/28 01:36:10;;;;;;;17.30;10.55;;;2.40;99.90;;;;;;6253161;22;20031;-85
2022/01/28 01:39:07;;;;;;;15.90;9.80;;;2.40;99.90;;;;;;6274467;22;20023;-86
2022/01/28 01:42:04;;;;;;;12.43;8.65;;;2.40;99.90;;;;;;6274296;22;20046;-85
2022/01/28 01:53:58;;;;;;;14.65;8.20;;;2.10;99.90;;;;;;6274318;22;20027;-85
2022/01/28 01:56:48;;;;;;;15.70;9.02;;;2.10;99.90;;;;;;6274909;22;20039;-84
2022/01/28 01:59:37;;;;;;;16.33;8.63;;;2.10;99.90;;;;;;6252844;22;20043;-84
2022/01/28 02:02:25;;;;;;;16.20;8.68;;;2.10;99.90;;;;;;6274555;22;20280;-84
2022/01/28 02:05:12;;;;;;;16.80;9.07;;;2.10;99.90;;;;;;6252634;22;20106;-85
2022/01/28 02:08:05;;;;;;;15.85;9.43;;;2.00;99.90;;;;;;6250325;22;20027;-85
2022/01/28 02:10:57;;;;;;;17.25;9.52;;;2.00;99.90;;;;;;6275004;22;20020;-84
2022/01/28 02:13:51;;;;;;;14.90;9.65;;;1.90;99.90;;;;;;6273660;22;20093;-85
2022/01/28 02:16:39;;;;;;;12.35;9.00;;;1.90;99.90;;;;;;6250655;22;20103;-85
2022/01/28 02:19:27;;;;;;;15.38;9.75;;;1.80;99.90;;;;;;6252050;22;20123;-84
2022/01/28 02:22:14;;;;;;;16.48;9.18;;;1.80;99.90;;;;;;6251634;22;20032;-84
2022/01/28 02:25:02;;;;;;;13.48;8.20;;;1.80;99.90;;;;;;6251126;22;20089;-85
2022/01/28 02:27:49;;;;;;;12.30;8.15;;;1.70;99.90;;;;;;6250615;22;20020;-85
2022/01/28 02:30:36;;;;;;;13.02;8.52;;;1.70;99.90;;;;;;6272410;22;20269;-85
2022/01/28 02:33:27;;;;;;;14.02;8.95;;;1.70;99.90;;;;;;6274432;22;20027;-84
2022/01/28 02:36:17;;;;;;;14.52;9.32;;;1.70;99.90;;;;;;6273802;22;20035;-85
2022/01/28 02:39:05;;;;;;;15.70;9.43;;;1.60;99.90;;;;;;6252426;22;20378;-85
2022/01/28 02:42:00;;;;;;;12.90;9.10;;;1.60;99.90;;;;;;6252564;22;20047;-84
2022/01/28 02:44:54;;;;;;;21.20;9.80;;;1.50;99.90;;;;;;6231347;22;20023;-85
2022/01/28 02:47:55;;;;;;;14.88;9.30;;;1.50;99.90;;;;;;6272905;22;20059;-86
2022/01/28 02:50:52;;;;;;;16.52;10.10;;;1.50;99.90;;;;;;6273804;22;20101;-85
2022/01/28 02:53:48;;;;;;;16.98;9.57;;;1.40;99.90;;;;;;6273978;22;20038;-85
2022/01/28 02:56:38;;;;;;;17.63;10.43;;;1.40;99.90;;;;;;6252648;22;20063;-85
2022/01/28 02:59:32;;;;;;;21.10;10.55;;;1.30;99.90;;;;;;6272433;22;20031;-84
2022/01/28 03:02:19;;;;;;;17.95;11.00;;;1.30;99.90;;;;;;6251723;22;20027;-84
2022/01/28 03:05:31;;;;;;;18.08;10.48;;;1.20;99.90;;;;;;6272964;22;20024;-84
2022/01/28 03:08:18;;;;;;;19.83;10.80;;;1.20;99.90;;;;;;6273667;22;20024;-84
2022/01/28 03:11:42;;;;;;;17.08;10.75;;;1.20;99.90;;;;;;6250975;22;20063;-84
2022/01/28 03:14:19;;;;;;;19.15;10.32;;;1.20;99.90;;;;;;6274832;22;20055;-83
2022/01/28 03:17:27;;;;;;;19.02;11.18;;;1.10;99.90;;;;;;6273077;22;20418;-85
2022/01/28 03:23:13;;;;;;;20.90;10.50;;;1.10;99.90;;;;;;6273525;22;20415;-85
2022/01/28 03:26:02;;;;;;;20.10;10.93;;;1.10;99.90;;;;;;6252351;22;20064;-84
2022/01/28 03:28:50;;;;;;;17.95;10.85;;;1.10;99.90;;;;;;6275417;22;20161;-85
2022/01/28 03:31:38;;;;;;;17.65;11.48;;;1.10;99.90;;;;;;6252581;22;20050;-86
2022/01/28 03:34:26;;;;;;;18.02;10.15;;;1.00;99.90;;;;;;6252079;22;20067;-84
2022/01/28 03:37:16;;;;;;;19.75;9.85;;;1.00;99.90;;;;;;6273496;22;20093;-85
2022/01/28 03:40:08;;;;;;;21.20;11.13;;;1.00;99.90;;;;;;6249072;22;20329;-85
2022/01/28 03:42:57;;;;;;;18.05;10.65;;;0.90;99.90;;;;;;6251339;22;20402;-85
2022/01/28 03:45:44;;;;;;;20.95;11.00;;;0.80;99.90;;;;;;6274928;22;20028;-84
2022/01/28 03:48:32;;;;;;;15.85;9.65;;;0.80;99.90;;;;;;6275454;22;20094;-85
2022/01/28 03:51:24;;;;;;;18.27;9.90;;;0.80;99.90;;;;;;6251973;22;20024;-85
2022/01/28 03:54:11;;;;;;;17.35;10.60;;;0.80;99.90;;;;;;6275667;22;20031;-85
2022/01/28 03:56:58;;;;;;;15.88;10.23;;;1.00;99.90;;;;;;6253465;22;20085;-85
2022/01/28 03:59:45;;;;;;;18.08;11.23;;;1.00;99.90;;;;;;6275513;22;20121;-86
2022/01/28 04:02:38;;;;;;;22.48;11.23;;;1.10;99.90;;;;;;6255250;22;20190;-85
2022/01/28 04:17:24;;;;;;;19.63;10.93;;;0.90;99.90;;;;;;6240513;22;20060;-84
2022/01/28 04:20:14;;;;;;;21.17;10.80;;;0.90;99.90;;;;;;6275495;22;20060;-82
2022/01/28 04:23:01;;;;;;;20.77;10.27;;;0.90;99.90;;;;;;6254801;22;20350;-85
2022/01/28 04:25:49;;;;;;;17.27;10.15;;;0.90;99.90;;;;;;6276134;22;20055;-85
2022/01/28 04:28:39;;;;;;;19.02;10.80;;;0.90;99.90;;;;;;6275831;22;20093;-85
2022/01/28 04:31:28;;;;;;;23.23;11.40;;;0.90;99.90;;;;;;6253080;22;20042;-85
2022/01/28 04:34:21;;;;;;;21.00;11.60;;;0.90;99.90;;;;;;6254007;22;20046;-85
2022/01/28 04:37:17;;;;;;;;;;;0.90;99.90;;;;;;6274877;22;20050;-85
2022/01/28 04:48:46;;;;;;;18.55;10.02;;;1.00;99.90;;;;;;6274797;22;20024;-83
2022/01/28 05:28:02;;;;;;;24.80;13.48;;;0.90;99.90;;;;;;6274282;22;20367;-85
2022/01/28 05:30:49;;;;;;;24.08;12.13;;;0.90;99.90;;;;;;6253590;22;20102;-86
2022/01/28 05:33:36;;;;;;;23.88;13.05;;;0.80;99.90;;;;;;6253012;22;20035;-86
2022/01/28 05:36:26;;;;;;;19.70;11.35;;;0.80;99.90;;;;;;6253184;22;20027;-85
2022/01/28 05:39:17;;;;;;;23.38;12.18;;;0.70;99.90;;;;;;6249515;22;20103;-85
2022/01/28 05:42:04;;;;;;;27.70;13.05;;;0.80;99.90;;;;;;6274416;22;20020;-87
2022/01/28 06:13:31;;;;;;;26.02;13.35;;;0.60;99.90;;;;;;6275279;22;20091;-88
2022/01/28 06:16:19;;;;;;;24.70;13.93;;;0.60;99.90;;;;;;6275449;22;20024;-87
2022/01/28 06:19:14;;;;;;;25.33;13.25;;;0.60;99.90;;;;;;6274213;22;20075;-90
2022/01/28 06:22:02;;;;;;;28.70;14.05;;;0.50;99.90;;;;;;6256875;22;20058;-88
2022/01/28 06:24:53;;;;;;;25.05;14.68;;;0.40;99.90;;;;;;6276317;22;20023;-83
2022/01/28 06:27:41;;;;;;;28.52;14.57;;;0.40;99.90;;;;;;6252479;22;20089;-83
2022/01/28 06:30:29;;;;;;;29.95;13.32;;;0.40;99.90;;;;;;6274730;22;20113;-84
2022/01/28 06:33:16;;;;;;;28.67;14.05;;;0.40;99.90;;;;;;6274913;22;20024;-85
2022/01/28 06:36:05;;;;;;;29.00;15.50;;;0.40;99.90;;;;;;6254007;22;20346;-85
2022/01/28 06:38:52;;;;;;;30.50;14.75;;;0.40;99.90;;;;;;6231862;22;20028;-84
2022/01/28 06:45:05;;;;;;;31.30;14.93;;;0.30;99.90;;;;;;6188185;22;20039;-82
2022/01/28 06:47:54;;;;;;;34.25;16.67;;;0.20;99.90;;;;;;6274057;22;20028;-84
2022/01/28 06:50:43;;;;;;;35.70;16.35;;;0.20;99.90;;;;;;6249363;22;20438;-83
2022/01/28 06:53:30;;;;;;;29.90;15.15;;;0.10;99.90;;;;;;6274039;22;20099;-82
2022/01/28 06:56:21;;;;;;;26.40;14.75;;;0.10;99.90;;;;;;6270456;22;20023;-84
2022/01/28 06:59:11;;;;;;;30.30;16.02;;;0.10;99.90;;;;;;6274133;22;20076;-86
2022/01/28 07:01:58;;;;;;;27.00;14.13;;;0.10;99.90;;;;;;6253747;22;20031;-85
2022/01/28 07:05:00;;;;;;;41.67;15.10;;;0.10;99.90;;;;;;6274703;22;20019;-85
2022/01/28 07:08:06;;;;;;;29.63;14.77;;;0.10;99.90;;;;;;6279179;22;20047;-85
2022/01/28 07:11:14;;;;;;;32.63;15.88;;;0.20;99.90;;;;;;6254143;22;20028;-86
2022/01/28 07:14:08;;;;;;;35.95;16.48;;;0.20;99.90;;;;;;6274574;22;20032;-90
2022/01/28 07:17:03;;;;;;;32.85;16.80;;;0.30;99.90;;;;;;6272726;22;20088;-91
2022/01/28 07:19:55;;;;;;;35.40;17.17;;;0.40;99.90;;;;;;6253400;22;20081;-91
2022/01/28 07:22:56;;;;;;;33.63;16.67;;;0.50;99.90;;;;;;6260539;22;20050;-90
2022/01/28 07:25:50;;;;;;;30.70;15.15;;;0.60;99.90;;;;;;6288302;22;20097;-89
2022/01/28 07:28:41;;;;;;;29.73;15.40;;;0.70;99.90;;;;;;6259130;22;20024;-87
2022/01/28 07:31:33;;;;;;;31.23;16.27;;;0.80;99.90;;;;;;6257479;22;20065;-85
2022/01/28 07:34:23;;;;;;;28.33;14.77;;;0.90;99.90;;;;;;6252792;22;20153;-84
2022/01/28 07:37:13;;;;;;;28.83;13.77;;;1.10;99.90;;;;;;6252267;22;20023;-85
2022/01/28 07:40:03;;;;;;;23.67;13.05;;;1.10;99.90;;;;;;6254959;22;20024;-87
2022/01/28 07:42:50;;;;;;;35.42;13.95;;;1.30;99.90;;;;;;6276638;22;20020;-86
2022/01/28 07:45:38;;;;;;;24.83;13.13;;;1.40;99.90;;;;;;6277385;22;20038;-87
2022/01/28 07:48:28;;;;;;;29.73;13.68;;;1.50;99.90;;;;;;6276879;22;20425;-85
2022/01/28 07:51:23;;;;;;;21.08;11.23;;;1.40;99.90;;;;;;6276844;22;20184;-91
2022/01/28 07:57:56;;;;;;;25.67;11.30;;;1.40;99.90;;;;;;6278581;22;20092;-86
2022/01/28 08:00:43;;;;;;;;;;;1.40;99.90;;;;;;6279309;22;20054;-85
2022/01/28 08:03:32;;;;;;;21.35;11.95;;;1.40;99.90;;;;;;6281488;22;20590;-84
2022/01/28 08:06:25;;;;;;;20.75;10.82;;;1.60;99.90;;;;;;6279436;22;20325;-83
2022/01/28 08:09:13;;;;;;;18.67;10.93;;;1.70;99.90;;;;;;6299444;22;20012;-86
2022/01/28 08:12:04;;;;;;;18.15;10.68;;;1.90;99.90;;;;;;6301686;22;20149;-87
2022/01/28 08:14:51;;;;;;;18.45;9.90;;;2.00;99.90;;;;;;6301347;22;20038;-85
2022/01/28 08:17:39;;;;;;;16.73;9.60;;;2.10;99.90;;;;;;6300572;22;20379;-85
2022/01/28 08:20:26;;;;;;;23.13;10.35;;;2.10;99.90;;;;;;6297061;22;20058;-85
2022/01/28 08:23:14;;;;;;;21.85;10.00;;;2.10;99.90;;;;;;6290505;22;20161;-88
2022/01/28 08:26:26;;;;;;;20.02;10.13;;;2.10;99.90;;;;;;6272058;22;20069;-90
2022/01/28 08:29:21;;;;;;;16.42;8.93;;;2.10;99.90;;;;;;6267725;22;20072;-88
2022/01/28 08:32:13;;;;;;;18.23;9.18;;;2.10;99.90;;;;;;6289681;22;20035;-87
2022/01/28 08:35:28;;;;;;;14.93;9.43;;;2.10;99.90;;;;;;6270924;22;20074;-87
2022/01/28 08:38:24;;;;;;;16.98;9.05;;;2.20;99.90;;;;;;6262413;22;20115;-87
2022/01/28 08:41:15;;;;;;;22.75;9.98;;;2.20;99.90;;;;;;6252225;22;20024;-85
2022/01/28 08:44:04;;;;;;;21.92;10.20;;;2.20;99.90;;;;;;6253278;22;20611;-88
2022/01/28 08:46:51;;;;;;;25.58;10.10;;;2.20;99.90;;;;;;6256206;22;20031;-87
2022/01/28 08:49:50;;;;;;;17.17;9.05;;;2.30;99.90;;;;;;6258001;22;20035;-90
2022/01/28 08:53:10;;;;;;;14.50;8.43;;;2.50;99.90;;;;;;6154074;23;20021;-86
2022/01/28 08:56:00;;;;;;;14.68;8.35;;;2.70;99.90;;;;;;6133004;23;20029;-87
2022/01/28 08:58:50;;;;;;;16.40;8.00;;;2.90;99.90;;;;;;6128804;23;20026;-88
2022/01/28 09:01:39;;;;;;;16.17;9.07;;;3.00;99.90;;;;;;6134035;23;20364;-88
2022/01/28 09:04:30;;;;;;;14.30;8.30;;;3.10;99.90;;;;;;6157104;23;20464;-89
2022/01/28 09:07:19;;;;;;;14.32;6.82;;;3.10;99.90;;;;;;6154480;23;20026;-88
2022/01/28 09:10:17;;;;;;;17.10;8.07;;;3.10;99.90;;;;;;6151743;23;20025;-87
2022/01/28 09:16:02;;;;;;;16.40;8.63;;;3.30;99.90;;;;;;6270852;22;20097;-89
2022/01/28 09:19:50;;;;;;;;;;;;;;;;;;;;;
2022/01/28 09:28:32;;;;;;;;;;;;;;;;;;;;;
2022/01/28 09:36:00;;;;;;;;;;;;;;;;;;;;;
2022/01/28 09:39:42;;;;;;;;;;;;;;;;;;;;;
2022/01/28 09:43:07;;;;;;;10.15;5.25;;;4.00;99.90;;;;;;6232928;22;20020;-88
2022/01/28 09:46:28;;;;;;;;;;;;;;;;;;;;;
2022/01/28 09:49:19;;;;;;;13.05;5.32;;;4.30;99.90;;;;;;6300224;22;20047;-86
2022/01/28 09:56:31;;;;;;;;;;;;;;;;;;;;;
2022/01/28 10:00:32;;;;;;;16.65;6.70;;;3.90;99.90;;;;;;6137271;23;20287;-88
2022/01/28 10:03:28;;;;;;;13.40;6.15;;;3.80;99.90;;;;;;6124533;23;20033;-90
2022/01/28 10:06:39;;;;;;;17.10;6.40;;;3.90;99.90;;;;;;6014686;23;20099;-88
2022/01/28 10:10:20;;;;;;;13.20;6.70;;;4.00;99.90;;;;;;5916130;24;20036;-91
2022/01/28 10:13:45;;;;;;;16.10;6.57;;;4.20;99.90;;;;;;5928838;24;20099;-87
2022/01/28 10:16:32;;;;;;;12.48;5.60;;;4.50;99.90;;;;;;5979496;24;20035;-90
2022/01/28 10:19:20;;;;;;;10.60;4.88;;;6.40;99.90;;;;;;5978094;24;20139;-88
2022/01/28 10:22:32;;;;;;;12.52;4.95;;;7.60;99.90;;;;;;5990930;23;20764;-90
2022/01/28 10:25:42;;;;;;;11.10;5.05;;;7.50;99.90;;;;;;6145668;22;20420;-86
2022/01/28 10:28:33;;;;;;;13.07;4.88;;;6.90;99.90;;;;;;6275234;22;20116;-88
2022/01/28 10:31:20;;;;;;;11.00;5.47;;;6.70;99.90;;;;;;6253217;22;20058;-88
2022/01/28 10:34:35;;;;;;;9.93;5.47;;;6.60;99.90;;;;;;6272328;22;20521;-88
2022/01/28 10:37:23;;;;;;;10.00;4.68;;;6.70;99.90;;;;;;6272978;22;20023;-88
2022/01/28 10:40:11;;;;;;;9.88;3.83;;;6.40;99.90;;;;;;6253548;22;20276;-86
2022/01/28 10:43:01;;;;;;;9.30;4.43;;;6.20;99.90;;;;;;6274932;22;20042;-86
2022/01/28 10:45:48;;;;;;;10.73;4.15;;;6.90;99.90;;;;;;6247974;22;20054;-87
2022/01/28 10:48:59;;;;;;;10.35;4.00;;;7.90;99.90;;;;;;6251602;22;20024;-87
2022/01/28 10:51:51;;;;;;;9.05;3.25;;;9.00;97.20;;;;;;6274208;22;20426;-86
2022/01/28 10:54:38;;;;;;;8.93;3.03;;;9.40;92.70;;;;;;6275979;22;20032;-87
2022/01/28 10:57:29;;;;;;;11.93;3.13;;;9.30;89.00;;;;;;6276734;22;20035;-86
2022/01/28 11:00:28;;;;;;;7.20;2.70;;;8.20;91.00;;;;;;6256102;22;20382;-88
2022/01/28 11:03:21;;;;;;;5.37;2.70;;;7.90;91.70;;;;;;6252669;22;20027;-88
2022/01/28 11:06:08;;;;;;;7.47;2.40;;;8.00;92.30;;;;;;6258129;22;20028;-89
2022/01/28 11:08:56;;;;;;;7.07;2.45;;;8.80;90.60;;;;;;6272327;22;20028;-90
2022/01/28 11:11:46;;;;;;;7.25;3.22;;;9.10;86.70;;;;;;6278181;22;20036;-91
2022/01/28 11:14:41;;;;;;;8.85;4.05;;;8.70;86.50;;;;;;6278646;22;20383;-87
2022/01/28 11:17:42;;;;;;;7.23;2.60;;;7.90;90.90;;;;;;6256573;22;20039;-89
2022/01/28 11:21:10;;;;;;;8.30;3.65;;;7.70;93.20;;;;;;6275496;22;20045;-88
2022/01/28 11:24:30;;;;;;;12.52;5.78;;;8.50;92.20;;;;;;6253398;22;20038;-89
2022/01/28 11:28:54;;;;;;;11.20;5.78;;;9.70;89.20;;;;;;6139828;23;20321;-90
2022/01/28 11:32:18;;;;;;;17.05;5.57;;;9.60;83.70;;;;;;6154622;23;20037;-88
2022/01/28 11:35:17;;;;;;;16.02;7.93;;;9.00;86.80;;;;;;6158860;23;20034;-88
2022/01/28 11:38:42;;;;;;;6.78;2.78;;;8.80;86.30;;;;;;6154291;23;20372;-87
2022/01/28 11:42:09;;;;;;;5.22;2.72;;;8.80;83.70;;;;;;6140480;23;20289;-88
2022/01/28 11:45:39;;;;;;;;;;;;;;;;;;;;;
2022/01/28 11:48:53;;;;;;;10.93;3.17;;;8.60;83.10;;;;;;6277048;22;20039;-89
2022/01/28 11:51:45;;;;;;;7.10;3.05;;;8.80;82.80;;;;;;6256690;22;20042;-88
2022/01/28 11:54:57;;;;;;;9.15;2.30;;;10.20;81.00;;;;;;6251266;22;20078;-88
2022/01/28 11:57:55;;;;;;;6.80;1.90;;;11.40;68.80;;;;;;6274033;22;20122;-85
2022/01/28 12:00:45;;;;;;;6.00;2.17;;;11.00;66.20;;;;;;6274822;22;20099;-85
2022/01/28 12:03:37;;;;;;;;;;;9.80;70.40;;;;;;6275833;22;20038;-88
2022/01/28 12:06:27;;;;;;;13.98;2.60;;;9.10;72.60;;;;;;6280613;22;19915;-86
2022/01/28 12:09:23;;;;;;;11.98;3.40;;;8.20;77.40;;;;;;6280080;22;20027;-87
2022/01/28 12:12:39;;;;;;;8.63;3.20;;;7.20;83.20;;;;;;6279801;22;20374;-87
2022/01/28 12:15:58;;;;;;;9.32;2.88;;;6.70;88.40;;;;;;6255430;22;20345;-89
2022/01/28 12:18:45;;;;;;;10.95;3.17;;;7.60;88.20;;;;;;6279180;22;20054;-90
2022/01/28 12:39:24;;;;;;;;;;;;;;;;;;;;;
2022/01/28 13:25:06;;;;;;;;;;;;;;;;;;;;;
2022/01/28 13:28:17;;;;;;;6.47;2.90;;;9.40;71.10;;;;;;6065154;23;20036;-87
2022/01/28 13:31:48;;;;;;;;;;;;;;;;;;;;;
2022/01/28 13:38:46;;;;;;;8.80;3.60;;;7.00;81.70;;;;;;6086393;23;20121;-88
2022/01/28 13:46:15;;;;;;;;;;;;;;;;;;;;;
2022/01/28 13:49:56;;;;;;;19.25;4.80;;;6.10;90.80;;;;;;5929224;24;20116;-88
2022/01/28 13:57:07;;;;;;;11.23;4.60;;;6.00;93.00;;;;;;5846542;24;20478;-90
2022/01/28 14:09:35;;;;;;;10.50;5.43;;;5.80;95.60;;;;;;6077550;23;20029;-90
2022/01/28 14:23:37;;;;;;;;;;;;;;;;;;;;;
2022/01/28 14:31:10;;;;;;;13.95;6.00;;;4.60;99.90;;;;;;6036432;23;20545;-87
2022/01/28 14:34:29;;;;;;;;;;;;;;;;;;;;;
2022/01/28 14:37:49;;;;;;;18.98;6.65;;;4.60;99.90;;;;;;6122254;23;20026;-91
2022/01/28 14:40:52;;;;;;;12.57;6.28;;;4.80;99.90;;;;;;6120986;23;20088;-90
2022/01/28 14:48:19;;;;;;;;;;;;;;;;;;;;;
2022/01/28 15:04:11;;;;;;;13.93;6.30;;;6.10;98.20;;;;;;6027893;23;20031;-89
2022/01/28 16:56:19;;;;;;;16.65;8.68;;;2.60;99.90;;;;;;6246792;23;20031;-86
2022/01/28 16:59:15;;;;;;;19.80;7.85;;;2.40;99.90;;;;;;6244837;23;20034;-87
2022/01/28 17:02:11;;;;;;;19.50;8.20;;;2.40;99.90;;;;;;6225422;23;20449;-91
2022/01/28 17:05:18;;;;;;;18.15;8.15;;;2.40;99.90;;;;;;6248137;23;20052;-89
2022/01/28 17:08:05;;;;;;;18.42;8.63;;;2.30;99.90;;;;;;6228135;23;20530;-88
2022/01/28 17:11:15;;;;;;;15.40;8.50;;;2.30;99.90;;;;;;6225040;23;20030;-89
2022/01/28 17:14:20;;;;;;;;;;;;;;;;;;;;;
2022/01/28 17:17:22;;;;;;;;;;;;;;;;;;;;;
2022/01/28 17:20:14;;;;;;;25.13;9.80;;;2.30;99.90;;;;;;6247088;23;20399;-91
2022/01/28 17:23:38;;;;;;;;;;;;;;;;;;;;;
2022/01/28 17:27:13;;;;;;;;;;;2.20;99.90;;;;;;6246792;23;20043;-90
2022/01/28 17:30:25;;;;;;;21.38;9.88;;;2.20;99.90;;;;;;6245878;23;19916;-87
2022/01/28 17:38:13;;;;;;;25.67;12.18;;;2.10;99.90;;;;;;6133557;23;20037;-90
2022/01/28 17:45:34;;;;;;;19.80;11.20;;;2.10;99.90;;;;;;6151930;23;20040;-91
2022/01/28 17:52:13;;;;;;;18.35;10.50;;;2.10;99.90;;;;;;6196196;23;20028;-90
2022/01/28 17:55:03;;;;;;;16.77;9.32;;;2.10;99.90;;;;;;6226013;23;20020;-89
2022/01/28 17:58:05;;;;;;;26.02;11.75;;;2.10;99.90;;;;;;6248635;22;20319;-90
2022/01/28 18:01:43;;;;;;;19.65;9.68;;;2.10;99.90;;;;;;6233029;23;20016;-90
2022/01/28 18:05:59;;;;;;;;;;;;;;;;;;;;;
2022/01/28 18:09:17;;;;;;;24.50;11.23;;;2.10;99.90;;;;;;6217882;23;20028;-90
2022/01/28 18:12:26;;;;;;;18.88;10.73;;;2.00;99.90;;;;;;6224723;23;20024;-90
2022/01/28 18:16:07;;;;;;;;;;;;;;;;;;;;;
2022/01/28 18:19:00;;;;;;;23.30;10.18;;;2.00;99.90;;;;;;6248155;22;20103;-89
2022/01/28 18:21:51;;;;;;;18.08;9.93;;;2.00;99.90;;;;;;6253259;23;20087;-86
2022/01/28 18:24:39;;;;;;;17.10;9.82;;;2.00;99.90;;;;;;6231935;23;20028;-89
2022/01/28 18:27:33;;;;;;;19.77;9.70;;;2.00;99.90;;;;;;6247202;22;20020;-89
2022/01/28 18:30:54;;;;;;;21.27;10.23;;;1.90;99.90;;;;;;6246080;23;20024;-90
2022/01/28 18:34:13;;;;;;;;;;;;;;;;;;;;;
2022/01/28 18:37:37;;;;;;;21.20;10.85;;;1.90;99.90;;;;;;6248468;22;20102;-89
2022/01/28 18:41:10;;;;;;;26.70;12.25;;;1.90;99.90;;;;;;6158516;23;20105;-87
2022/01/28 18:44:22;;;;;;;21.10;12.15;;;1.80;99.90;;;;;;6142983;23;20076;-89
2022/01/28 18:47:17;;;;;;;27.42;11.90;;;1.80;99.90;;;;;;6140550;23;20036;-87
2022/01/28 18:50:28;;;;;;;24.05;12.52;;;1.80;99.90;;;;;;6162679;23;20048;-88
2022/01/28 18:54:10;;;;;;;;;;;;;;;;;;;;;
2022/01/28 18:57:56;;;;;;;26.60;11.80;;;1.80;99.90;;;;;;6185376;23;20423;-91
2022/01/28 19:01:02;;;;;;;30.08;13.52;;;1.90;99.90;;;;;;6250872;22;20099;-90
2022/01/28 19:04:52;;;;;;;;;;;;;;;;;;;;;
2022/01/28 19:17:22;;;;;;;;;;;;;;;;;;;;;
2022/01/28 19:21:15;;;;;;;;;;;;;;;;;;;;;
2022/01/28 19:24:26;;;;;;;30.48;14.68;;;1.60;99.90;;;;;;6037598;23;20455;-89
2022/01/28 19:27:22;;;;;;;23.70;12.82;;;1.50;99.90;;;;;;6019361;23;20432;-89
2022/01/28 19:31:17;;;;;;;;;;;;;;;;;;;;;
2022/01/28 19:34:52;;;;;;;25.42;13.90;;;1.50;99.90;;;;;;5937969;24;20073;-87
2022/01/28 19:42:14;;;;;;;30.05;13.98;;;1.50;99.90;;;;;;5982413;23;20119;-89
2022/01/28 19:49:06;;;;;;;27.55;14.07;;;1.50;99.90;;;;;;5954098;24;20036;-89
2022/01/28 19:52:02;;;;;;;28.75;14.98;;;1.40;99.90;;;;;;5954529;24;20042;-90
2022/01/28 19:55:00;;;;;;;25.75;15.98;;;1.40;99.90;;;;;;6123984;23;20026;-91
2022/01/28 20:01:57;;;;;;;32.08;14.65;;;1.30;99.90;;;;;;6133510;23;20406;-87
2022/01/28 20:05:36;;;;;;;27.50;15.52;;;1.20;99.90;;;;;;6209756;23;20114;-88
2022/01/28 20:13:35;;;;;;;32.78;13.88;;;1.20;99.90;;;;;;5954221;24;20021;-87
2022/01/28 20:21:15;;;;;;;26.40;15.35;;;1.20;99.90;;;;;;5969244;24;20163;-88
2022/01/28 20:24:37;;;;;;;36.83;17.85;;;1.30;99.90;;;;;;5994754;23;20088;-91
2022/01/28 20:27:56;;;;;;;;;;;;;;;;;;;;;
2022/01/28 20:30:59;;;;;;;29.17;15.57;;;1.30;99.90;;;;;;6123946;23;20030;-87
2022/01/28 20:38:26;;;;;;;;;;;;;;;;;;;;;
2022/01/28 20:41:35;;;;;;;;;;;;;;;;;;;;;
2022/01/28 20:45:08;;;;;;;;;;;;;;;;;;;;;
2022/01/28 20:56:18;;;;;;;31.45;15.90;;;1.50;99.90;;;;;;6016999;23;20095;-91
2022/01/28 21:48:07;;;;;;;;;;;;;;;;;;;;;
2022/01/28 21:51:21;;;;;;;28.63;15.00;;;1.30;99.90;;;;;;6185646;23;20016;-89
2022/01/28 21:55:02;;;;;;;;;;;;;;;;;;;;;
2022/01/28 21:58:13;;;;;;;27.65;14.90;;;1.30;99.90;;;;;;6193761;23;20021;-88
2022/01/28 22:01:39;;;;;;;;;;;;;;;;;;;;;
2022/01/28 22:04:55;;;;;;;27.05;15.10;;;1.40;99.90;;;;;;6130434;23;20014;-89
2022/01/28 22:08:12;;;;;;;30.65;15.63;;;1.40;99.90;;;;;;6015617;23;20028;-90
2022/01/28 22:11:43;;;;;;;;;;;;;;;;;;;;;
2022/01/28 22:15:12;;;;;;;;;;;;;;;;;;;;;
2022/01/28 22:22:15;;;;;;;62.88;29.13;;;1.30;99.90;;;;;;6004622;23;20026;-89
2022/01/28 22:25:33;;;;;;;;;;;;;;;;;;;;;
2022/01/28 22:28:27;;;;;;;31.17;17.77;;;1.20;99.90;;;;;;5995575;24;20107;-89
2022/01/28 22:31:45;;;;;;;28.80;16.00;;;1.20;99.90;;;;;;6069767;23;20026;-90
2022/01/28 22:35:10;;;;;;;;;;;;;;;;;;;;;
2022/01/28 22:38:21;;;;;;;31.17;16.00;;;1.20;99.90;;;;;;6094349;23;20026;-88
2022/01/28 22:41:33;;;;;;;28.67;16.10;;;1.10;99.90;;;;;;6154623;23;20104;-90
2022/01/28 22:44:31;;;;;;;26.08;15.20;;;1.20;99.90;;;;;;6185139;23;20183;-87
2022/01/28 22:47:38;;;;;;;27.30;14.77;;;1.20;99.90;;;;;;6166803;23;20029;-89
2022/01/28 22:50:54;;;;;;;;;;;;;;;;;;;;;
2022/01/28 22:53:48;;;;;;;40.28;16.02;;;1.10;99.90;;;;;;6122630;23;20045;-87
2022/01/28 22:56:40;;;;;;;30.52;16.40;;;1.00;99.90;;;;;;6105720;23;20030;-89
2022/01/28 22:59:54;;;;;;;26.38;15.82;;;1.00;99.90;;;;;;6108255;23;20034;-88
2022/01/28 23:02:42;;;;;;;37.25;16.00;;;1.00;99.90;;;;;;6109535;23;20385;-88
2022/01/28 23:05:33;;;;;;;26.50;15.38;;;0.90;99.90;;;;;;6124441;23;20112;-88
2022/01/28 23:08:32;;;;;;;30.02;16.02;;;0.90;99.90;;;;;;6103868;23;20085;-89
2022/01/28 23:11:47;;;;;;;32.42;15.70;;;0.80;99.90;;;;;;6108483;23;20030;-89
2022/01/28 23:15:06;;;;;;;;;;;;;;;;;;;;;
2022/01/28 23:18:07;;;;;;;30.40;16.60;;;0.70;99.90;;;;;;6009325;23;20032;-88
2022/01/28 23:21:00;;;;;;;28.73;16.65;;;0.80;99.90;;;;;;6001967;23;20031;-89
2022/01/28 23:24:23;;;;;;;;;;;;;;;;;;;;;
2022/01/28 23:27:33;;;;;;;;;;;;;;;;;;;;;
2022/01/28 23:30:45;;;;;;;28.63;16.98;;;0.70;99.90;;;;;;6039220;23;20075;-88
2022/01/28 23:33:38;;;;;;;33.42;16.90;;;0.80;99.90;;;;;;6020048;23;20032;-90
2022/01/28 23:36:30;;;;;;;32.67;17.45;;;0.80;99.90;;;;;;6040374;23;20039;-89
2022/01/28 23:39:27;;;;;;;33.53;18.08;;;0.80;99.90;;;;;;6186320;23;20036;-87
2022/01/28 23:42:32;;;;;;;32.72;16.92;;;0.90;99.90;;;;;;6166974;23;20107;-90
2022/01/28 23:45:28;;;;;;;34.35;17.30;;;0.90;99.90;;;;;;6165408;23;20037;-88
2022/01/28 23:48:17;;;;;;;36.72;18.52;;;1.00;99.90;;;;;;6184150;23;20025;-88
2022/01/28 23:51:30;;;;;;;28.75;16.83;;;1.00;99.90;;;;;;6167936;23;20056;-91
2022/01/28 23:54:30;;;;;;;26.95;16.70;;;1.00;99.90;;;;;;6165834;23;20419;-88
2022/01/28 23:57:27;;;;;;;33.97;17.40;;;1.00;99.90;;;;;;6186868;23;20037;-90
